Cocodrie, Louisiana
Current Conditions -  °F | °C
As of 1:50 PM on Saturday 25 Oct 2014 (Local Time) from KHUM Reporting Station
Clear Clear  
Wind Chill: 79°   Ceiling: Unl
Heat Index: 79°   Visibility: 7mi
Dew Point: 54°   Wind: 9mph
Humidity: 42%   Direction: 30°NNE
Pressure: 30.1"   Gusts: NA
Location:  29.4719°N, 90.6177°W
Report Text: KHUM 251850Z 03008KT 7SM SKC 26/12 A3010 RMK ATIS R VA RY36 OO
Loading
Personal Weather Stations






























Interactive Weather Map
Tropical Storm Tracking
New forecast layout! Learn more

10-Day Weather Forecast

Advertisements
Track Severe Weather on mobile